Time;durP1;ratioP1;P1;durP2;ratioP2;P2;SDS_P1;SDS_P2;PMS_P1;PMS_P2;Temp;Humidity;BMP_temperature;BMP_pressure;BME280_temperature;BME280_humidity;BME280_pressure;Samples;Min_cycle;Max_cycle;Signal;HPM_P1;HPM_P2
2023/09/19 00:00:21;;;;;;;;;;;14.20;99.90;;;;;;4947440;28;19938;-84
2023/09/19 00:02:54;;;;;;;;;;;14.10;99.90;;;;;;4930537;29;20459;-84
2023/09/19 00:05:24;;;;;;;;;;;14.10;99.90;;;;;;4915674;29;20045;-84
2023/09/19 00:07:50;;;;;;;;;;;14.00;99.90;;;;;;4931919;29;19934;-85
2023/09/19 00:10:16;;;;;;;;;;;13.90;99.90;;;;;;4931674;29;19938;-84
2023/09/19 00:12:45;;;;;;;;;;;13.90;99.90;;;;;;4927648;29;19970;-84
2023/09/19 00:15:11;;;;;;;;;;;13.90;99.90;;;;;;4915569;29;20278;-84
2023/09/19 00:17:37;;;;;;;;;;;13.80;99.90;;;;;;4931140;29;19927;-84
2023/09/19 00:20:07;;;;;;;;;;;13.80;99.90;;;;;;4934569;29;20068;-84
2023/09/19 00:22:32;;;;;;;;;;;13.80;99.90;;;;;;4936501;29;19927;-83
2023/09/19 00:24:58;;;;;;;;;;;13.80;99.90;;;;;;4935253;29;19941;-84
2023/09/19 00:27:23;;;;;;;;;;;13.70;99.90;;;;;;4935228;29;19975;-84
2023/09/19 00:29:49;;;;;;;;;;;13.70;99.90;;;;;;4936005;29;19977;-82
2023/09/19 00:32:15;;;;;;;;;;;13.70;99.90;;;;;;4935350;28;20021;-84
2023/09/19 00:34:42;;;;;;;;;;;13.70;99.90;;;;;;4951717;28;19930;-84
2023/09/19 00:37:07;;;;;;;;;;;13.70;99.90;;;;;;4936809;29;19930;-84
2023/09/19 00:39:33;;;;;;;;;;;13.70;99.90;;;;;;4941110;29;19934;-85
2023/09/19 00:42:04;;;;;;;;;;;13.60;99.90;;;;;;4944373;29;19927;-84
2023/09/19 00:44:30;;;;;;;;;;;13.60;99.90;;;;;;4916083;29;19954;-84
2023/09/19 00:46:56;;;;;;;;;;;13.60;99.90;;;;;;4935095;29;20345;-85
2023/09/19 00:49:22;;;;;;;;;;;13.60;99.90;;;;;;4931961;29;19930;-84
2023/09/19 00:51:48;;;;;;;;;;;13.60;99.90;;;;;;4979464;28;19951;-85
2023/09/19 00:54:18;;;;;;;;;;;13.50;99.90;;;;;;4929600;29;19931;-84
2023/09/19 00:56:44;;;;;;;;;;;13.50;99.90;;;;;;4933784;29;19966;-85
2023/09/19 00:59:11;;;;;;;;;;;13.60;99.90;;;;;;4932258;28;19927;-84
2023/09/19 01:01:39;;;;;;;;;;;13.50;99.90;;;;;;4927841;28;19934;-84
2023/09/19 01:04:05;;;;;;;;;;;13.60;99.90;;;;;;4938154;29;20328;-84
2023/09/19 01:06:31;;;;;;;;;;;13.60;99.90;;;;;;4936766;29;20069;-85
2023/09/19 01:08:56;;;;;;;;;;;13.50;99.90;;;;;;4936273;29;20060;-85
2023/09/19 01:11:34;;;;;;;;;;;13.50;99.90;;;;;;4933818;29;20305;-84
2023/09/19 01:14:13;;;;;;;;;;;13.50;99.90;;;;;;4935056;29;19927;-84
2023/09/19 01:16:51;;;;;;;;;;;13.50;99.90;;;;;;4948319;28;19942;-84
2023/09/19 01:19:16;;;;;;;;;;;13.50;99.90;;;;;;4934292;29;19927;-84
2023/09/19 01:21:42;;;;;;;;;;;13.50;99.90;;;;;;4934914;29;19937;-83
2023/09/19 01:24:35;;;;;;;;;;;13.40;99.90;;;;;;4935646;29;19931;-84
2023/09/19 01:27:00;;;;;;;;;;;13.40;99.90;;;;;;4949547;28;19973;-85
2023/09/19 01:29:39;;;;;;;;;;;13.40;99.90;;;;;;4933731;29;19931;-84
2023/09/19 01:32:06;;;;;;;;;;;13.40;99.90;;;;;;4936159;29;20535;-85
2023/09/19 01:34:52;;;;;;;;;;;13.40;99.90;;;;;;4934380;29;20286;-84
2023/09/19 01:37:20;;;;;;;;;;;13.40;99.90;;;;;;4933963;29;19927;-83
2023/09/19 01:39:49;;;;;;;;;;;13.30;99.90;;;;;;4934836;29;20026;-85
2023/09/19 01:42:22;;;;;;;;;;;13.30;99.90;;;;;;4934773;29;19927;-85
2023/09/19 01:44:48;;;;;;;;;;;13.30;99.90;;;;;;4930520;29;20001;-83
2023/09/19 01:47:36;;;;;;;;;;;13.30;99.90;;;;;;4924643;28;19927;-84
2023/09/19 01:50:10;;;;;;;;;;;13.20;99.90;;;;;;4924385;29;19927;-84
2023/09/19 01:52:38;;;;;;;;;;;13.20;99.90;;;;;;4950223;28;20390;-83
2023/09/19 01:55:09;;;;;;;;;;;13.20;99.90;;;;;;4949616;28;19973;-84
2023/09/19 01:57:50;;;;;;;;;;;13.20;99.90;;;;;;4932515;29;19981;-84
2023/09/19 02:00:16;;;;;;;;;;;13.20;99.90;;;;;;4922694;29;19982;-85
2023/09/19 02:02:44;;;;;;;;;;;13.10;99.90;;;;;;4930149;29;19933;-84
2023/09/19 02:05:11;;;;;;;;;;;13.10;99.90;;;;;;4935679;29;19926;-85
2023/09/19 02:07:38;;;;;;;;;;;13.10;99.90;;;;;;4931105;28;20013;-87
2023/09/19 02:10:06;;;;;;;;;;;13.10;99.90;;;;;;4940066;28;20033;-84
2023/09/19 02:12:32;;;;;;;;;;;13.10;99.90;;;;;;4933405;29;19931;-86
2023/09/19 02:14:59;;;;;;;;;;;13.10;99.90;;;;;;4933840;29;19938;-85
2023/09/19 02:17:25;;;;;;;;;;;13.10;99.90;;;;;;4932911;29;19934;-84
2023/09/19 02:19:55;;;;;;;;;;;13.10;99.90;;;;;;4932508;29;19938;-84
2023/09/19 02:22:24;;;;;;;;;;;13.10;99.90;;;;;;4933543;29;19938;-86
2023/09/19 02:24:50;;;;;;;;;;;13.10;99.90;;;;;;4949348;28;20393;-84
2023/09/19 02:27:17;;;;;;;;;;;13.10;99.90;;;;;;4933438;29;19934;-84
2023/09/19 02:29:43;;;;;;;;;;;13.10;99.90;;;;;;4929572;29;20382;-85
2023/09/19 02:32:11;;;;;;;;;;;13.10;99.90;;;;;;4932739;29;19941;-84
2023/09/19 02:34:38;;;;;;;;;;;13.00;99.90;;;;;;4932514;29;19927;-86
2023/09/19 02:37:08;;;;;;;;;;;13.00;99.90;;;;;;4933358;29;20289;-84
2023/09/19 02:39:35;;;;;;;;;;;13.00;99.90;;;;;;4937688;29;19930;-83
2023/09/19 02:42:00;;;;;;;;;;;13.10;99.90;;;;;;4940414;28;19931;-85
2023/09/19 02:44:27;;;;;;;;;;;13.00;99.90;;;;;;4931946;28;20376;-83
2023/09/19 02:46:53;;;;;;;;;;;13.00;99.90;;;;;;4929429;29;19933;-85
2023/09/19 02:49:18;;;;;;;;;;;13.00;99.90;;;;;;4932508;28;19930;-81
2023/09/19 02:51:44;;;;;;;;;;;13.00;99.90;;;;;;4932217;28;20028;-84
2023/09/19 02:54:10;;;;;;;;;;;13.00;99.90;;;;;;4916061;29;19931;-86
2023/09/19 02:56:36;;;;;;;;;;;13.00;99.90;;;;;;4931818;29;19927;-84
2023/09/19 02:59:02;;;;;;;;;;;13.00;99.90;;;;;;4935154;29;19934;-83
2023/09/19 03:01:28;;;;;;;;;;;13.00;99.90;;;;;;4949518;28;19982;-85
2023/09/19 03:03:53;;;;;;;;;;;13.00;99.90;;;;;;4932695;29;20405;-84
2023/09/19 03:06:20;;;;;;;;;;;13.00;99.90;;;;;;4933070;29;19927;-83
2023/09/19 03:08:46;;;;;;;;;;;13.00;99.90;;;;;;4929798;29;19931;-85
2023/09/19 03:11:14;;;;;;;;;;;13.00;99.90;;;;;;4927559;29;19931;-87
2023/09/19 03:13:42;;;;;;;;;;;13.00;99.90;;;;;;4930296;29;20416;-84
2023/09/19 03:16:07;;;;;;;;;;;13.00;99.90;;;;;;4927300;29;19931;-85
2023/09/19 03:18:36;;;;;;;;;;;13.00;99.90;;;;;;4936414;29;19926;-85
2023/09/19 03:21:01;;;;;;;;;;;13.10;99.90;;;;;;4938772;29;19934;-84
2023/09/19 03:23:28;;;;;;;;;;;13.10;99.90;;;;;;4931908;29;19926;-85
2023/09/19 03:25:54;;;;;;;;;;;13.20;99.90;;;;;;4948365;28;19934;-86
2023/09/19 03:28:21;;;;;;;;;;;13.20;99.90;;;;;;4936265;29;19931;-84
2023/09/19 03:30:57;;;;;;;;;;;13.30;99.90;;;;;;4931652;29;20029;-86
2023/09/19 03:33:22;;;;;;;;;;;13.30;99.90;;;;;;4945532;29;19927;-85
2023/09/19 03:35:52;;;;;;;;;;;13.40;99.90;;;;;;4947197;28;19938;-85
2023/09/19 03:38:17;;;;;;;;;;;13.40;99.90;;;;;;4930713;28;20013;-86
2023/09/19 03:40:43;;;;;;;;;;;13.50;99.90;;;;;;4931570;28;20005;-84
2023/09/19 03:43:09;;;;;;;;;;;13.50;99.90;;;;;;4950765;29;19974;-84
2023/09/19 03:45:34;;;;;;;;;;;13.60;99.90;;;;;;4950115;29;20009;-84
2023/09/19 03:48:00;;;;;;;;;;;13.60;99.90;;;;;;4954286;28;19934;-83
2023/09/19 03:50:26;;;;;;;;;;;13.60;99.90;;;;;;4930451;29;19927;-85
2023/09/19 03:52:55;;;;;;;;;;;13.70;99.90;;;;;;4930398;29;19985;-87
2023/09/19 03:55:21;;;;;;;;;;;13.70;99.90;;;;;;4932616;29;19927;-83
2023/09/19 03:57:50;;;;;;;;;;;13.60;99.90;;;;;;4932509;29;20400;-85
2023/09/19 04:00:18;;;;;;;;;;;13.70;99.90;;;;;;4915682;29;19969;-86
2023/09/19 04:02:45;;;;;;;;;;;13.70;99.90;;;;;;4910582;29;19927;-82
2023/09/19 04:05:11;;;;;;;;;;;13.70;99.90;;;;;;4930263;29;20379;-86
2023/09/19 04:07:37;;;;;;;;;;;13.70;99.90;;;;;;4930095;28;19933;-83
2023/09/19 04:10:03;;;;;;;;;;;13.70;99.90;;;;;;4923738;29;19938;-87
2023/09/19 04:12:28;;;;;;;;;;;13.80;99.90;;;;;;4923730;29;20393;-87
2023/09/19 04:14:54;;;;;;;;;;;13.70;99.90;;;;;;4927943;29;19926;-83
2023/09/19 04:17:20;;;;;;;;;;;13.70;99.90;;;;;;4935297;28;19930;-85
2023/09/19 04:19:45;;;;;;;;;;;13.70;99.90;;;;;;4929552;28;19927;-86
2023/09/19 04:22:12;;;;;;;;;;;13.60;99.90;;;;;;4928178;29;20278;-85
2023/09/19 04:24:38;;;;;;;;;;;13.70;99.90;;;;;;4942543;28;19939;-87
2023/09/19 04:27:04;;;;;;;;;;;13.60;99.90;;;;;;4929688;29;19954;-84
2023/09/19 04:29:30;;;;;;;;;;;13.60;99.90;;;;;;4930252;29;19938;-87
2023/09/19 04:31:57;;;;;;;;;;;13.60;99.90;;;;;;4930718;29;19927;-85
2023/09/19 04:34:24;;;;;;;;;;;13.50;99.90;;;;;;4930779;28;19957;-85
2023/09/19 04:36:49;;;;;;;;;;;13.50;99.90;;;;;;4930799;29;19931;-86
2023/09/19 04:39:16;;;;;;;;;;;13.50;99.90;;;;;;4933959;28;20393;-86
2023/09/19 04:41:42;;;;;;;;;;;13.50;99.90;;;;;;4935848;29;19927;-84
2023/09/19 04:44:08;;;;;;;;;;;13.40;99.90;;;;;;4930913;29;20457;-83
2023/09/19 04:46:34;;;;;;;;;;;13.40;99.90;;;;;;4989925;28;19927;-85
2023/09/19 04:48:59;;;;;;;;;;;13.40;99.90;;;;;;4943014;29;19927;-84
2023/09/19 04:51:26;;;;;;;;;;;13.40;99.90;;;;;;4932421;28;19934;-85
2023/09/19 04:53:52;;;;;;;;;;;13.40;99.90;;;;;;4936300;29;20278;-84
2023/09/19 04:56:18;;;;;;;;;;;13.40;99.90;;;;;;4932501;28;19938;-85
2023/09/19 04:58:44;;;;;;;;;;;13.40;99.90;;;;;;4936177;29;20382;-85
2023/09/19 05:01:12;;;;;;;;;;;13.40;99.90;;;;;;4934793;29;19938;-83
2023/09/19 05:03:38;;;;;;;;;;;13.40;99.90;;;;;;4935822;29;19926;-85
2023/09/19 05:06:05;;;;;;;;;;;13.40;99.90;;;;;;4935850;29;19938;-84
2023/09/19 05:08:30;;;;;;;;;;;13.40;99.90;;;;;;4914710;29;19934;-84
2023/09/19 05:10:56;;;;;;;;;;;13.40;99.90;;;;;;4929103;29;19927;-86
2023/09/19 05:13:23;;;;;;;;;;;13.30;99.90;;;;;;4953497;29;19970;-86
2023/09/19 05:15:50;;;;;;;;;;;13.30;99.90;;;;;;4937151;29;19933;-85
2023/09/19 05:18:15;;;;;;;;;;;13.30;99.90;;;;;;4954092;29;19931;-87
2023/09/19 05:20:41;;;;;;;;;;;13.30;99.90;;;;;;4954880;29;19937;-88
2023/09/19 05:23:12;;;;;;;;;;;13.20;99.90;;;;;;4952741;29;20341;-85
2023/09/19 05:25:38;;;;;;;;;;;13.20;99.90;;;;;;4967312;28;19933;-82
2023/09/19 05:28:05;;;;;;;;;;;13.10;99.90;;;;;;4952821;29;19927;-88
2023/09/19 05:30:31;;;;;;;;;;;13.10;99.90;;;;;;4956103;29;19927;-86
2023/09/19 05:32:57;;;;;;;;;;;13.10;99.90;;;;;;4955437;29;20509;-87
2023/09/19 05:35:24;;;;;;;;;;;13.10;99.90;;;;;;4953819;29;19931;-82
2023/09/19 05:37:50;;;;;;;;;;;13.10;99.90;;;;;;4955417;29;19935;-84
2023/09/19 05:40:17;;;;;;;;;;;13.10;99.90;;;;;;4955472;29;19926;-85
2023/09/19 05:42:43;;;;;;;;;;;13.00;99.90;;;;;;4956637;29;19922;-87
2023/09/19 05:45:12;;;;;;;;;;;13.10;99.90;;;;;;4939544;29;19965;-88
2023/09/19 05:47:38;;;;;;;;;;;13.00;99.90;;;;;;4953719;29;19967;-86
2023/09/19 05:50:05;;;;;;;;;;;13.00;99.90;;;;;;4956341;29;19927;-88
2023/09/19 05:52:30;;;;;;;;;;;13.00;99.90;;;;;;4955103;29;19970;-86
2023/09/19 05:54:56;;;;;;;;;;;13.00;99.90;;;;;;4955207;29;19922;-85
2023/09/19 05:57:22;;;;;;;;;;;13.00;99.90;;;;;;4948278;28;19942;-85
2023/09/19 05:59:50;;;;;;;;;;;13.00;99.90;;;;;;4933466;29;19926;-84
2023/09/19 06:02:16;;;;;;;;;;;13.10;99.90;;;;;;4933065;28;20385;-86
2023/09/19 06:04:41;;;;;;;;;;;13.10;99.90;;;;;;4909901;29;19974;-85
2023/09/19 06:07:07;;;;;;;;;;;13.20;99.90;;;;;;4928813;29;19988;-87
2023/09/19 06:09:33;;;;;;;;;;;13.20;99.90;;;;;;4933279;29;20022;-86
2023/09/19 06:12:03;;;;;;;;;;;13.30;99.90;;;;;;4916755;29;19927;-83
2023/09/19 06:14:28;;;;;;;;;;;13.30;99.90;;;;;;4932569;29;19939;-85
2023/09/19 06:16:54;;;;;;;;;;;13.40;99.90;;;;;;4931123;29;19977;-84
2023/09/19 06:19:22;;;;;;;;;;;13.40;99.90;;;;;;4933306;29;20297;-85
2023/09/19 06:21:48;;;;;;;;;;;13.60;99.90;;;;;;4932879;29;19934;-85
2023/09/19 06:24:14;;;;;;;;;;;13.70;99.90;;;;;;4940981;29;20000;-85
2023/09/19 06:26:40;;;;;;;;;;;13.80;99.90;;;;;;4931909;29;19981;-85
2023/09/19 06:29:08;;;;;;;;;;;13.80;99.90;;;;;;4933230;29;19938;-84
2023/09/19 06:31:34;;;;;;;;;;;13.80;99.90;;;;;;4932392;29;20009;-84
2023/09/19 06:33:59;;;;;;;;;;;13.70;99.90;;;;;;4932207;29;20226;-85
2023/09/19 06:36:25;;;;;;;;;;;13.70;99.90;;;;;;4932502;29;19934;-85
2023/09/19 06:38:53;;;;;;;;;;;13.60;99.90;;;;;;4930826;28;19927;-85
2023/09/19 06:41:21;;;;;;;;;;;13.60;99.90;;;;;;4933446;29;19926;-85
2023/09/19 06:43:46;;;;;;;;;;;13.60;99.90;;;;;;4931996;29;19931;-85
2023/09/19 06:46:12;;;;;;;;;;;13.60;99.90;;;;;;4933104;28;20401;-86
2023/09/19 06:48:38;;;;;;;;;;;13.70;99.90;;;;;;4930863;29;19978;-89
2023/09/19 06:51:05;;;;;;;;;;;13.70;99.90;;;;;;4948321;28;19927;-89
2023/09/19 06:53:31;;;;;;;;;;;13.80;99.90;;;;;;4932132;29;20014;-84
2023/09/19 06:55:57;;;;;;;;;;;13.80;99.90;;;;;;4933018;28;19974;-87
2023/09/19 06:58:23;;;;;;;;;;;13.90;99.90;;;;;;4898120;28;20411;-83
2023/09/19 07:00:50;;;;;;;;;;;14.00;99.90;;;;;;4932923;29;19982;-85
2023/09/19 07:03:19;;;;;;;;;;;14.10;99.90;;;;;;4939492;29;19927;-85
2023/09/19 07:05:47;;;;;;;;;;;14.10;99.90;;;;;;4932855;29;19926;-84
2023/09/19 07:08:13;;;;;;;;;;;14.10;99.90;;;;;;4930591;29;19931;-84
2023/09/19 07:10:48;;;;;;;;;;;14.30;99.90;;;;;;4929432;28;19937;-86
2023/09/19 07:13:16;;;;;;;;;;;14.70;99.90;;;;;;4929192;28;19927;-87
2023/09/19 07:15:46;;;;;;;;;;;15.20;99.90;;;;;;4924514;29;19934;-84
2023/09/19 07:18:14;;;;;;;;;;;15.70;99.90;;;;;;4929653;28;19930;-85
2023/09/19 07:20:49;;;;;;;;;;;15.70;99.90;;;;;;4921935;28;19942;-85
2023/09/19 07:23:23;;;;;;;;;;;15.50;99.90;;;;;;4932642;29;19981;-85
2023/09/19 07:25:49;;;;;;;;;;;15.40;99.90;;;;;;4921856;29;19976;-86
2023/09/19 07:28:15;;;;;;;;;;;15.30;99.90;;;;;;4927915;28;19935;-84
2023/09/19 07:30:41;;;;;;;;;;;15.30;99.90;;;;;;4928947;29;19931;-85
2023/09/19 07:33:07;;;;;;;;;;;15.40;99.90;;;;;;4928387;29;19930;-86
2023/09/19 07:35:33;;;;;;;;;;;15.60;99.90;;;;;;4932108;28;20034;-86
2023/09/19 07:38:01;;;;;;;;;;;15.70;99.90;;;;;;4931199;29;19938;-86
2023/09/19 07:40:28;;;;;;;;;;;15.80;99.90;;;;;;4930815;29;20433;-86
2023/09/19 07:42:57;;;;;;;;;;;15.80;99.90;;;;;;4932323;29;19933;-86
2023/09/19 07:45:25;;;;;;;;;;;15.70;99.90;;;;;;4932387;29;19931;-87
2023/09/19 07:47:50;;;;;;;;;;;15.70;99.90;;;;;;4931216;29;19980;-84
2023/09/19 07:50:18;;;;;;;;;;;15.90;99.90;;;;;;4930648;29;19931;-83
2023/09/19 07:52:44;;;;;;;;;;;16.40;99.90;;;;;;4931971;29;19927;-86
2023/09/19 07:55:16;;;;;;;;;;;16.70;99.90;;;;;;4931488;29;19933;-83
2023/09/19 07:57:42;;;;;;;;;;;16.80;99.90;;;;;;4933555;28;19934;-84
2023/09/19 08:00:09;;;;;;;;;;;16.70;99.90;;;;;;4932223;29;19934;-83
2023/09/19 08:02:39;;;;;;;;;;;16.70;99.90;;;;;;4931201;29;20374;-83
2023/09/19 08:05:06;;;;;;;;;;;16.70;99.90;;;;;;4932088;29;20444;-84
2023/09/19 08:07:36;;;;;;;;;;;16.70;99.90;;;;;;4930617;29;19926;-84
2023/09/19 08:10:01;;;;;;;;;;;16.60;99.90;;;;;;4930734;29;19927;-85
2023/09/19 08:12:27;;;;;;;;;;;16.40;99.90;;;;;;4931314;28;20014;-84
2023/09/19 08:14:52;;;;;;;;;;;16.30;99.90;;;;;;4929685;28;19934;-84
2023/09/19 08:17:19;;;;;;;;;;;16.20;99.90;;;;;;4931919;29;19977;-85
2023/09/19 08:19:46;;;;;;;;;;;16.00;99.90;;;;;;4930767;29;19927;-83
2023/09/19 08:22:12;;;;;;;;;;;15.90;99.90;;;;;;4928871;29;19961;-83
2023/09/19 08:24:37;;;;;;;;;;;15.80;99.90;;;;;;4997460;28;20287;-86
2023/09/19 08:27:04;;;;;;;;;;;15.70;99.90;;;;;;4931579;28;19927;-84
2023/09/19 08:29:30;;;;;;;;;;;15.70;99.90;;;;;;4929782;29;19931;-84
2023/09/19 08:31:57;;;;;;;;;;;15.80;99.90;;;;;;4928732;29;19981;-86
2023/09/19 08:34:23;;;;;;;;;;;15.80;99.90;;;;;;4933710;28;20408;-84
2023/09/19 08:36:50;;;;;;;;;;;15.80;99.90;;;;;;4946977;28;20015;-83
2023/09/19 08:39:16;;;;;;;;;;;15.90;99.90;;;;;;4932982;28;19980;-83
2023/09/19 08:41:42;;;;;;;;;;;16.10;99.90;;;;;;4935051;29;20416;-84
2023/09/19 08:44:10;;;;;;;;;;;16.30;99.90;;;;;;4931724;29;19938;-84
2023/09/19 08:46:38;;;;;;;;;;;16.60;99.90;;;;;;4933263;29;20017;-85
2023/09/19 08:49:07;;;;;;;;;;;16.80;99.90;;;;;;4934592;28;19949;-85
2023/09/19 08:51:46;;;;;;;;;;;16.90;99.90;;;;;;4932887;29;19938;-87
2023/09/19 08:54:22;;;;;;;;;;;17.00;99.90;;;;;;4930206;29;19962;-85
2023/09/19 08:56:48;;;;;;;;;;;17.20;99.90;;;;;;4934057;29;19927;-85
2023/09/19 08:59:14;;;;;;;;;;;17.50;99.90;;;;;;4923417;29;19931;-85
2023/09/19 09:01:41;;;;;;;;;;;17.80;99.90;;;;;;4931431;28;20389;-83
2023/09/19 09:04:12;;;;;;;;;;;17.90;99.90;;;;;;4933841;29;19930;-85
2023/09/19 09:06:40;;;;;;;;;;;18.20;99.90;;;;;;4934449;29;20295;-83
2023/09/19 09:09:06;;;;;;;;;;;18.40;99.90;;;;;;4935033;29;19930;-86
2023/09/19 09:11:37;;;;;;;;;;;18.60;99.90;;;;;;4933464;29;19934;-84
2023/09/19 09:14:02;;;;;;;;;;;18.70;99.90;;;;;;4930327;29;19931;-84
2023/09/19 09:16:29;;;;;;;;;;;18.80;99.90;;;;;;4929634;29;19946;-85
2023/09/19 09:18:55;;;;;;;;;;;19.00;99.90;;;;;;4947159;28;20377;-84
2023/09/19 09:21:24;;;;;;;;;;;19.00;99.90;;;;;;4924005;29;19977;-85
2023/09/19 09:23:52;;;;;;;;;;;19.00;99.90;;;;;;4928500;28;19927;-84
2023/09/19 09:26:24;;;;;;;;;;;18.90;99.90;;;;;;4934084;29;19933;-89
2023/09/19 09:28:52;;;;;;;;;;;18.80;99.90;;;;;;4932281;29;19927;-85
2023/09/19 09:31:24;;;;;;;;;;;18.90;99.90;;;;;;4932068;29;20030;-83
2023/09/19 09:33:57;;;;;;;;;;;19.10;99.90;;;;;;4932247;29;19935;-85
2023/09/19 09:36:34;;;;;;;;;;;19.30;99.90;;;;;;4933240;29;19927;-84
2023/09/19 09:39:15;;;;;;;;;;;19.30;99.90;;;;;;4932769;29;20059;-85
2023/09/19 09:41:41;;;;;;;;;;;19.30;99.90;;;;;;4933283;29;19949;-87
2023/09/19 09:44:17;;;;;;;;;;;19.40;99.90;;;;;;4931039;29;19927;-87
2023/09/19 09:49:34;;;;;;;;;;;19.30;99.90;;;;;;4933050;29;19941;-87
2023/09/19 09:52:00;;;;;;;;;;;19.40;99.90;;;;;;4931491;29;20612;-85
2023/09/19 09:54:39;;;;;;;;;;;19.50;99.90;;;;;;4932415;29;19927;-86
2023/09/19 09:57:20;;;;;;;;;;;19.70;99.90;;;;;;4932375;29;19938;-86
2023/09/19 09:59:46;;;;;;;;;;;19.70;99.90;;;;;;4935216;28;19931;-83
2023/09/19 10:02:13;;;;;;;;;;;19.70;99.90;;;;;;4943761;29;19934;-86
2023/09/19 10:04:51;;;;;;;;;;;19.70;99.90;;;;;;4935777;28;19984;-85
2023/09/19 10:07:37;;;;;;;;;;;19.60;99.90;;;;;;4932439;29;19950;-87
2023/09/19 10:10:16;;;;;;;;;;;19.50;99.90;;;;;;4932592;29;20006;-87
2023/09/19 10:12:47;;;;;;;;;;;19.50;99.90;;;;;;4931528;29;20374;-87
2023/09/19 10:15:20;;;;;;;;;;;19.50;99.90;;;;;;4933729;29;20022;-86
2023/09/19 10:17:46;;;;;;;;;;;19.40;99.90;;;;;;4930936;29;19935;-85
2023/09/19 10:20:24;;;;;;;;;;;19.40;99.90;;;;;;4932434;29;19937;-87
2023/09/19 10:22:57;;;;;;;;;;;19.30;99.90;;;;;;4933426;29;19934;-90
2023/09/19 10:25:26;;;;;;;;;;;19.30;99.90;;;;;;4933600;29;19927;-84
2023/09/19 10:27:53;;;;;;;;;;;19.20;99.90;;;;;;4924091;29;19927;-87
2023/09/19 10:30:20;;;;;;;;;;;19.20;99.90;;;;;;4931096;28;19986;-84
2023/09/19 10:32:47;;;;;;;;;;;19.00;99.90;;;;;;4931588;28;19926;-87
2023/09/19 10:35:14;;;;;;;;;;;18.90;99.90;;;;;;4931353;29;19966;-88
2023/09/19 10:37:40;;;;;;;;;;;18.90;99.90;;;;;;4930671;29;19934;-85
2023/09/19 10:40:08;;;;;;;;;;;18.90;99.90;;;;;;4931061;28;19938;-87
2023/09/19 10:42:37;;;;;;;;;;;18.90;99.90;;;;;;4928391;28;20293;-87
2023/09/19 10:45:07;;;;;;;;;;;19.00;99.90;;;;;;4929853;29;19934;-87
2023/09/19 10:47:32;;;;;;;;;;;19.20;99.90;;;;;;4931959;29;19927;-87
2023/09/19 10:49:58;;;;;;;;;;;19.20;99.90;;;;;;4930859;29;19942;-87
2023/09/19 10:52:24;;;;;;;;;;;19.20;99.90;;;;;;4930519;29;19938;-87
2023/09/19 10:54:54;;;;;;;;;;;19.10;99.90;;;;;;4932394;29;19933;-89
2023/09/19 10:57:23;;;;;;;;;;;18.80;99.90;;;;;;4914631;28;19966;-87
2023/09/19 11:00:21;;;;;;;;;;;18.70;99.90;;;;;;4930944;28;19940;-85
2023/09/19 11:03:07;;;;;;;;;;;18.60;99.90;;;;;;4916386;28;19940;-88
2023/09/19 11:05:33;;;;;;;;;;;18.70;99.90;;;;;;4932009;29;19950;-87
2023/09/19 11:08:04;;;;;;;;;;;18.90;99.90;;;;;;4913168;28;19930;-86
2023/09/19 11:10:46;;;;;;;;;;;18.80;99.90;;;;;;4931641;29;19927;-88
2023/09/19 11:13:37;;;;;;;;;;;18.80;99.90;;;;;;4931904;29;19927;-89
2023/09/19 11:16:04;;;;;;;;;;;18.80;99.90;;;;;;4932153;28;20426;-87
2023/09/19 11:18:42;;;;;;;;;;;18.90;99.90;;;;;;4913672;28;20017;-89
2023/09/19 11:21:31;;;;;;;;;;;18.90;99.90;;;;;;4930489;28;19957;-85
2023/09/19 11:24:09;;;;;;;;;;;18.90;99.90;;;;;;4930909;29;19962;-87
2023/09/19 11:26:47;;;;;;;;;;;19.00;99.90;;;;;;4937430;29;20429;-86
2023/09/19 11:29:31;;;;;;;;;;;19.10;99.90;;;;;;4945243;28;19931;-86
2023/09/19 11:31:59;;;;;;;;;;;19.20;99.90;;;;;;4928810;29;20020;-84
2023/09/19 11:34:48;;;;;;;;;;;19.30;99.90;;;;;;4931865;28;20469;-87
2023/09/19 11:37:13;;;;;;;;;;;19.30;99.90;;;;;;4930318;28;19953;-86
2023/09/19 11:39:42;;;;;;;;;;;19.40;99.90;;;;;;4921734;29;20332;-88
2023/09/19 11:42:27;;;;;;;;;;;19.40;99.90;;;;;;4909817;29;20034;-88
2023/09/19 11:44:55;;;;;;;;;;;19.40;99.90;;;;;;4926155;29;19931;-88
2023/09/19 11:47:24;;;;;;;;;;;19.40;99.90;;;;;;4927194;28;19927;-88
2023/09/19 11:49:53;;;;;;;;;;;19.30;99.90;;;;;;4921739;29;20022;-85
2023/09/19 11:52:24;;;;;;;;;;;19.30;99.90;;;;;;4930406;29;19931;-86
2023/09/19 11:54:56;;;;;;;;;;;19.20;99.90;;;;;;4928285;29;20296;-89
2023/09/19 11:57:22;;;;;;;;;;;19.20;99.90;;;;;;4912821;28;19946;-88
2023/09/19 11:59:48;;;;;;;;;;;19.10;99.90;;;;;;4927533;29;19930;-86
2023/09/19 12:02:21;;;;;;;;;;;19.00;99.90;;;;;;4929463;29;19953;-85
2023/09/19 12:04:49;;;;;;;;;;;19.00;99.90;;;;;;4930192;28;19931;-87
2023/09/19 12:07:15;;;;;;;;;;;19.00;99.90;;;;;;4923010;29;19977;-87
2023/09/19 12:09:47;;;;;;;;;;;19.00;99.90;;;;;;4925824;29;19966;-86
2023/09/19 12:12:22;;;;;;;;;;;19.00;99.90;;;;;;4931927;29;19927;-85
2023/09/19 12:14:48;;;;;;;;;;;19.00;99.90;;;;;;4932084;29;19934;-87
2023/09/19 12:17:14;;;;;;;;;;;18.90;99.90;;;;;;4931585;29;19931;-86
2023/09/19 12:19:49;;;;;;;;;;;18.80;99.90;;;;;;4932497;29;19931;-87
2023/09/19 12:22:15;;;;;;;;;;;18.80;99.90;;;;;;4923847;29;19935;-87
2023/09/19 12:24:44;;;;;;;;;;;18.70;99.90;;;;;;4939253;28;19973;-87
2023/09/19 12:27:11;;;;;;;;;;;18.70;99.90;;;;;;4933781;28;19942;-87
2023/09/19 12:29:44;;;;;;;;;;;18.60;99.90;;;;;;4932818;28;20037;-90
2023/09/19 12:32:10;;;;;;;;;;;18.50;99.90;;;;;;4928018;28;19950;-86
2023/09/19 12:34:35;;;;;;;;;;;18.50;99.90;;;;;;4932713;29;20362;-87
2023/09/19 12:37:27;;;;;;;;;;;18.60;99.90;;;;;;4933789;29;19993;-86
2023/09/19 12:39:56;;;;;;;;;;;18.70;99.90;;;;;;4925154;28;20382;-87
2023/09/19 12:42:23;;;;;;;;;;;18.70;99.90;;;;;;4933263;28;19930;-86
2023/09/19 12:44:56;;;;;;;;;;;18.80;99.90;;;;;;4948885;28;19984;-88
2023/09/19 12:47:23;;;;;;;;;;;18.80;99.90;;;;;;4933956;29;19938;-84
2023/09/19 12:50:06;;;;;;;;;;;18.80;99.90;;;;;;4933084;29;19935;-85
2023/09/19 12:52:36;;;;;;;;;;;18.90;99.90;;;;;;4932002;28;20293;-87
2023/09/19 12:55:02;;;;;;;;;;;19.00;99.90;;;;;;4932140;29;19937;-87
2023/09/19 12:57:28;;;;;;;;;;;19.00;99.90;;;;;;4915062;29;19949;-88
2023/09/19 12:59:54;;;;;;;;;;;19.00;99.90;;;;;;4932500;29;20014;-84
2023/09/19 13:02:23;;;;;;;;;;;18.90;99.90;;;;;;4934718;29;19980;-87
2023/09/19 13:04:53;;;;;;;;;;;18.90;99.90;;;;;;4932875;29;20309;-89
2023/09/19 13:07:38;;;;;;;;;;;18.80;99.90;;;;;;4929781;29;19931;-87
2023/09/19 13:10:04;;;;;;;;;;;18.70;99.90;;;;;;4921199;29;19927;-86
2023/09/19 13:12:38;;;;;;;;;;;18.70;99.90;;;;;;4933644;29;19931;-86
2023/09/19 13:15:13;;;;;;;;;;;18.60;99.90;;;;;;4933417;29;19953;-86
2023/09/19 13:17:42;;;;;;;;;;;18.50;99.90;;;;;;4926283;29;19935;-87
2023/09/19 13:20:24;;;;;;;;;;;18.50;99.90;;;;;;4933475;29;19926;-87
2023/09/19 13:22:53;;;;;;;;;;;18.50;99.90;;;;;;4934095;29;19934;-87
2023/09/19 13:25:19;;;;;;;;;;;18.60;99.90;;;;;;4933331;28;19937;-86
2023/09/19 13:27:48;;;;;;;;;;;18.50;99.90;;;;;;4932873;29;20001;-87
2023/09/19 13:30:13;;;;;;;;;;;18.50;99.90;;;;;;4931576;29;19927;-86
2023/09/19 13:32:40;;;;;;;;;;;18.40;99.90;;;;;;4929791;28;20243;-87
2023/09/19 13:35:08;;;;;;;;;;;18.40;99.90;;;;;;4940650;29;19969;-86
2023/09/19 13:37:37;;;;;;;;;;;18.40;99.90;;;;;;4927164;29;19927;-85
2023/09/19 13:40:05;;;;;;;;;;;18.40;99.90;;;;;;4931646;28;19970;-87
2023/09/19 13:42:30;;;;;;;;;;;18.40;99.90;;;;;;4912197;29;20018;-87
2023/09/19 13:44:56;;;;;;;;;;;18.50;99.90;;;;;;4932960;29;20014;-86
2023/09/19 13:47:24;;;;;;;;;;;18.50;99.90;;;;;;4931046;29;19934;-87
2023/09/19 13:49:53;;;;;;;;;;;18.50;99.90;;;;;;4917190;28;20278;-85
2023/09/19 13:52:19;;;;;;;;;;;18.60;99.90;;;;;;4934950;29;19931;-85
2023/09/19 13:54:45;;;;;;;;;;;18.60;99.90;;;;;;4885109;29;20342;-85
2023/09/19 13:57:10;;;;;;;;;;;18.80;99.90;;;;;;4939954;28;19927;-87
2023/09/19 13:59:36;;;;;;;;;;;18.90;99.90;;;;;;4932469;29;19927;-88
2023/09/19 14:02:05;;;;;;;;;;;18.90;99.90;;;;;;4913510;29;19927;-87
2023/09/19 14:04:31;;;;;;;;;;;19.00;99.90;;;;;;4932140;29;19927;-84
2023/09/19 14:06:57;;;;;;;;;;;19.00;99.90;;;;;;4928275;29;20072;-85
2023/09/19 14:09:24;;;;;;;;;;;19.00;99.90;;;;;;4932365;29;20028;-86
2023/09/19 14:11:52;;;;;;;;;;;19.10;99.90;;;;;;4930584;29;19927;-87
2023/09/19 14:14:20;;;;;;;;;;;19.00;99.90;;;;;;4927680;29;19982;-86
2023/09/19 14:16:47;;;;;;;;;;;19.10;99.90;;;;;;4931917;29;19927;-86
2023/09/19 14:19:15;;;;;;;;;;;19.10;99.90;;;;;;4929925;29;19930;-88
2023/09/19 14:21:40;;;;;;;;;;;19.00;99.90;;;;;;4946362;28;19927;-88
2023/09/19 14:24:09;;;;;;;;;;;19.00;99.90;;;;;;4930902;28;19938;-87
2023/09/19 14:26:35;;;;;;;;;;;18.90;99.90;;;;;;4932943;28;20282;-87